Аэропорт: Гянджа. Гянджа

ICAO: UBBG

METAR:
2019/05/26 14:00
UBBG 261400Z 09010KT 9999 VCTS SCT040CB BKN100 26/16 Q1008 R12/190065 NOSIG 
METAR:
2019/05/26 12:03
TAF TAF UBBG 261100Z 2612/2712 31010KT 9999 FEW040CB SCT040 BKN100 TX30/2612Z TN17/2702Z 
      TEMPO 2613/2618 VRB18KT -TSRA SCT030CB BKN060